Airport ICAO


09:13 UTC

0°C

Broken clouds


An affordable passengers' Moving Map for your aircraft. Made for the iPad and the iPhone
More information here

LFLL Saint Exupery


Lyon FRANCE   IFR CAT I


METAR LFLL 180900Z 34011KT 9999 BKN008 00/M01 Q1018 NOSIG 0h13min

TAF LFLL 180500Z 1806/1912 35008KT 9999 SCT010 SCT030 TEMPO 1806/1811 BKN010 TEMPO 1903/1908 3000 BR 4h13min





NOTAMS

OPEN